createdAt,value
2018-02-24T00:00:41.039Z,0
2018-02-24T00:01:41.695Z,0
2018-02-24T00:02:42.389Z,0
2018-02-24T00:03:43.048Z,0
2018-02-24T00:04:43.701Z,0
2018-02-24T00:05:44.357Z,0
2018-02-24T00:06:45.012Z,0
2018-02-24T00:07:45.666Z,0
2018-02-24T00:08:46.324Z,0
2018-02-24T00:09:46.982Z,0
2018-02-24T00:10:47.639Z,0
2018-02-24T00:11:48.295Z,0
2018-02-24T00:12:48.953Z,0
2018-02-24T00:13:49.609Z,0
2018-02-24T00:14:50.265Z,0
2018-02-24T00:15:50.922Z,0
2018-02-24T00:16:51.577Z,0
2018-02-24T00:17:52.233Z,0
2018-02-24T00:18:52.892Z,0
2018-02-24T00:19:53.549Z,0
2018-02-24T00:20:54.204Z,0
2018-02-24T00:21:54.911Z,0
2018-02-24T00:22:55.568Z,0
2018-02-24T00:23:56.225Z,0
2018-02-24T00:24:56.881Z,0
2018-02-24T00:25:57.571Z,0
2018-02-24T00:26:58.277Z,0
2018-02-24T00:27:58.933Z,0
2018-02-24T00:28:59.588Z,0
2018-02-24T00:30:00.246Z,0
2018-02-24T00:31:00.899Z,0
2018-02-24T00:32:01.555Z,0
2018-02-24T00:33:02.212Z,0
2018-02-24T00:34:02.907Z,0
2018-02-24T00:35:03.562Z,0
2018-02-24T00:36:04.254Z,0
2018-02-24T00:37:04.911Z,0
2018-02-24T00:38:05.567Z,0
2018-02-24T00:39:06.229Z,0
2018-02-24T00:40:06.881Z,0
2018-02-24T00:41:07.540Z,0
2018-02-24T00:42:08.195Z,0
2018-02-24T00:43:08.851Z,0
2018-02-24T00:44:09.510Z,0
2018-02-24T00:45:10.162Z,0
2018-02-24T00:46:10.818Z,0
2018-02-24T00:47:11.473Z,0
2018-02-24T00:48:12.128Z,0
2018-02-24T00:49:12.821Z,0
2018-02-24T00:50:13.479Z,0
2018-02-24T00:51:14.131Z,0
2018-02-24T00:52:14.789Z,0
2018-02-24T00:53:15.446Z,0
2018-02-24T00:54:16.144Z,0
2018-02-24T00:55:16.838Z,0
2018-02-24T00:56:17.493Z,0
2018-02-24T00:57:18.152Z,0
2018-02-24T00:58:18.843Z,0
2018-02-24T00:59:19.500Z,0
2018-02-24T01:00:20.197Z,0
2018-02-24T01:01:20.855Z,0
2018-02-24T01:02:23.511Z,0
2018-02-24T01:03:24.168Z,0
2018-02-24T01:04:24.823Z,0
2018-02-24T01:05:25.479Z,0
2018-02-24T01:06:26.133Z,0
2018-02-24T01:07:26.792Z,0
2018-02-24T01:08:27.449Z,0
2018-02-24T01:09:28.105Z,0
2018-02-24T01:10:28.760Z,0
2018-02-24T01:11:29.418Z,0
2018-02-24T01:12:30.076Z,0
2018-02-24T01:13:30.732Z,0
2018-02-24T01:14:31.388Z,0
2018-02-24T01:15:32.044Z,0
2018-02-24T01:16:32.706Z,0
2018-02-24T01:17:33.399Z,0
2018-02-24T01:18:34.056Z,0
2018-02-24T01:19:34.711Z,0
2018-02-24T01:20:35.366Z,0
2018-02-24T01:21:36.023Z,0
2018-02-24T01:22:36.679Z,0
2018-02-24T01:23:37.335Z,0
2018-02-24T01:24:37.992Z,0
2018-02-24T01:25:38.647Z,0
2018-02-24T01:26:39.301Z,0
2018-02-24T01:27:39.960Z,0
2018-02-24T01:28:40.616Z,0
2018-02-24T01:29:41.273Z,0
2018-02-24T01:30:41.929Z,0
2018-02-24T01:31:42.584Z,0
2018-02-24T01:32:43.241Z,0
2018-02-24T01:33:43.897Z,0
2018-02-24T01:34:44.553Z,0
2018-02-24T01:35:45.207Z,0
2018-02-24T01:36:45.865Z,0
2018-02-24T01:37:46.556Z,0
2018-02-24T01:38:47.212Z,0
2018-02-24T01:39:47.871Z,0
2018-02-24T01:40:48.527Z,0
2018-02-24T01:41:49.222Z,0
2018-02-24T01:42:49.877Z,0
2018-02-24T01:43:50.534Z,0
2018-02-24T01:44:51.190Z,0
2018-02-24T01:45:51.848Z,0
2018-02-24T01:46:52.505Z,0
2018-02-24T01:47:53.161Z,0
2018-02-24T01:48:53.815Z,0
2018-02-24T01:49:54.471Z,0
2018-02-24T01:50:55.128Z,0
2018-02-24T01:51:55.785Z,0
2018-02-24T01:52:56.444Z,0
2018-02-24T01:53:57.097Z,0
2018-02-24T01:54:57.753Z,0
2018-02-24T01:55:58.409Z,0
2018-02-24T01:56:59.066Z,0
2018-02-24T01:57:59.723Z,0
2018-02-24T01:59:00.378Z,0
2018-02-24T02:00:01.042Z,0
2018-02-24T02:01:01.731Z,0
2018-02-24T02:02:02.384Z,0
2018-02-24T02:03:03.039Z,0
2018-02-24T02:04:03.695Z,0
2018-02-24T02:05:04.353Z,0
2018-02-24T02:06:05.013Z,0
2018-02-24T02:07:05.664Z,0
2018-02-24T02:08:06.320Z,0
2018-02-24T02:09:06.977Z,0
2018-02-24T02:10:07.633Z,0
2018-02-24T02:11:08.288Z,0
2018-02-24T02:12:08.942Z,0
2018-02-24T02:13:09.598Z,0
2018-02-24T02:14:10.254Z,0
2018-02-24T02:15:10.912Z,0
2018-02-24T02:16:11.569Z,0
2018-02-24T02:17:12.224Z,0
2018-02-24T02:18:12.879Z,0
2018-02-24T02:19:13.536Z,0
2018-02-24T02:20:14.192Z,0
2018-02-24T02:21:14.847Z,0
2018-02-24T02:22:15.504Z,0
2018-02-24T02:23:16.160Z,0
2018-02-24T02:24:16.817Z,0
2018-02-24T02:25:17.480Z,0
2018-02-24T02:26:18.130Z,0
2018-02-24T02:27:18.789Z,0
2018-02-24T02:28:19.441Z,0
2018-02-24T02:29:20.097Z,0
2018-02-24T02:30:20.755Z,0
2018-02-24T02:31:21.410Z,0
2018-02-24T02:32:22.065Z,0
2018-02-24T02:33:22.721Z,0
2018-02-24T02:34:23.381Z,0
2018-02-24T02:35:24.032Z,0
2018-02-24T02:36:24.688Z,0
2018-02-24T02:37:25.344Z,0
2018-02-24T02:38:25.999Z,0
2018-02-24T02:39:26.654Z,0
2018-02-24T02:40:27.311Z,0
2018-02-24T02:41:27.967Z,0
2018-02-24T02:42:28.625Z,0
2018-02-24T02:43:29.329Z,0
2018-02-24T02:44:29.988Z,0
2018-02-24T02:45:30.645Z,0
2018-02-24T02:46:31.300Z,0
2018-02-24T02:47:31.958Z,0
2018-02-24T02:48:32.610Z,0
2018-02-24T02:49:33.268Z,0
2018-02-24T02:50:33.924Z,0
2018-02-24T02:51:34.579Z,0
2018-02-24T02:52:35.238Z,0
2018-02-24T02:53:35.890Z,0
2018-02-24T02:54:36.548Z,0
2018-02-24T02:55:37.205Z,0
2018-02-24T02:56:37.861Z,0
2018-02-24T02:57:38.517Z,0
2018-02-24T02:58:39.227Z,0
2018-02-24T02:59:39.919Z,0
2018-02-24T03:00:40.612Z,0
2018-02-24T03:01:41.266Z,0
2018-02-24T03:02:41.922Z,0
2018-02-24T03:03:42.580Z,0
2018-02-24T03:04:43.234Z,0
2018-02-24T03:05:43.897Z,0
2018-02-24T03:06:44.553Z,0
2018-02-24T03:07:45.205Z,0
2018-02-24T03:08:45.910Z,0
2018-02-24T03:09:46.565Z,0
2018-02-24T03:10:47.219Z,0
2018-02-24T03:11:47.875Z,0
2018-02-24T03:12:48.530Z,0
2018-02-24T03:13:49.185Z,0
2018-02-24T03:14:49.841Z,0
2018-02-24T03:15:50.500Z,0
2018-02-24T03:16:51.154Z,0
2018-02-24T03:17:51.847Z,0
2018-02-24T03:18:52.502Z,0
2018-02-24T03:19:53.158Z,0
2018-02-24T03:20:53.822Z,0
2018-02-24T03:21:54.470Z,0
2018-02-24T03:22:55.125Z,0
2018-02-24T03:23:55.780Z,0
2018-02-24T03:24:56.434Z,0
2018-02-24T03:25:57.089Z,0
2018-02-24T03:26:57.746Z,0
2018-02-24T03:27:58.403Z,0
2018-02-24T03:28:59.059Z,0
2018-02-24T03:29:59.715Z,0
2018-02-24T03:31:00.371Z,0
2018-02-24T03:32:01.027Z,0
2018-02-24T03:33:01.684Z,0
2018-02-24T03:34:02.340Z,0
2018-02-24T03:35:02.994Z,0
2018-02-24T03:36:03.649Z,0
2018-02-24T03:37:04.306Z,0
2018-02-24T03:38:04.965Z,0
2018-02-24T03:39:05.618Z,0
2018-02-24T03:40:06.274Z,0
2018-02-24T03:41:06.930Z,0
2018-02-24T03:42:07.586Z,0
2018-02-24T03:43:08.242Z,0
2018-02-24T03:44:08.897Z,0
2018-02-24T03:45:09.551Z,0
2018-02-24T03:46:10.208Z,0
2018-02-24T03:47:10.863Z,0
2018-02-24T03:48:11.520Z,0
2018-02-24T03:49:12.177Z,0
2018-02-24T03:50:12.832Z,0
2018-02-24T03:51:13.491Z,0
2018-02-24T03:52:14.149Z,0
2018-02-24T03:53:14.841Z,0
2018-02-24T03:54:15.496Z,0
2018-02-24T03:55:16.152Z,0
2018-02-24T03:56:16.807Z,0
2018-02-24T03:57:17.462Z,0
2018-02-24T03:58:18.120Z,0
2018-02-24T03:59:18.775Z,0
2018-02-24T04:00:19.435Z,0
2018-02-24T04:01:20.088Z,0
2018-02-24T04:02:20.743Z,0
2018-02-24T04:03:21.399Z,0
2018-02-24T04:04:22.055Z,0
2018-02-24T04:05:22.714Z,0
2018-02-24T04:06:23.365Z,0
2018-02-24T04:07:24.021Z,0
2018-02-24T04:08:24.677Z,0
2018-02-24T04:09:25.334Z,0
2018-02-24T04:10:25.990Z,0
2018-02-24T04:11:26.646Z,0
2018-02-24T04:12:27.302Z,0
2018-02-24T04:13:27.959Z,0
2018-02-24T04:14:28.614Z,0
2018-02-24T04:15:29.273Z,0
2018-02-24T04:16:29.999Z,0
2018-02-24T04:17:30.611Z,0
2018-02-24T04:18:31.265Z,0
2018-02-24T04:19:31.972Z,0
2018-02-24T04:20:32.628Z,0
2018-02-24T04:21:33.283Z,0
2018-02-24T04:22:33.939Z,0
2018-02-24T04:23:34.594Z,0
2018-02-24T04:24:35.248Z,0
2018-02-24T04:25:35.905Z,0
2018-02-24T04:26:36.560Z,0
2018-02-24T04:27:37.215Z,0
2018-02-24T04:28:37.871Z,0
2018-02-24T04:29:38.525Z,0
2018-02-24T04:30:39.182Z,0
2018-02-24T04:31:39.839Z,0
2018-02-24T04:32:40.548Z,0
2018-02-24T04:33:41.154Z,0
2018-02-24T04:34:41.804Z,0
2018-02-24T04:35:42.459Z,0
2018-02-24T04:36:43.116Z,0
2018-02-24T04:37:43.772Z,0
2018-02-24T04:38:44.426Z,0
2018-02-24T04:39:45.081Z,0
2018-02-24T04:40:45.736Z,0
2018-02-24T04:41:46.393Z,0
2018-02-24T04:42:47.051Z,0
2018-02-24T04:43:47.706Z,0
2018-02-24T04:44:48.360Z,0
2018-02-24T04:45:49.016Z,0
2018-02-24T04:46:49.672Z,0
2018-02-24T04:47:50.327Z,0
2018-02-24T04:48:50.983Z,0
2018-02-24T04:49:51.638Z,0
2018-02-24T04:50:52.293Z,0
2018-02-24T04:51:52.949Z,0
2018-02-24T04:52:53.606Z,0
2018-02-24T04:53:54.261Z,0
2018-02-24T04:54:54.916Z,0
2018-02-24T04:55:55.572Z,0
2018-02-24T04:56:56.235Z,0
2018-02-24T04:57:56.923Z,0
2018-02-24T04:58:57.578Z,0
2018-02-24T04:59:58.233Z,0
2018-02-24T05:00:58.888Z,0
2018-02-24T05:01:59.544Z,0
2018-02-24T05:03:00.201Z,0
2018-02-24T05:04:00.856Z,0
2018-02-24T05:05:01.515Z,0
2018-02-24T05:06:02.167Z,0
2018-02-24T05:07:02.823Z,0
2018-02-24T05:08:03.479Z,0
2018-02-24T05:09:04.134Z,0
2018-02-24T05:10:04.793Z,0
2018-02-24T05:11:05.444Z,0
2018-02-24T05:12:06.099Z,0
2018-02-24T05:13:06.754Z,0
2018-02-24T05:14:07.410Z,0
2018-02-24T05:15:08.117Z,0
2018-02-24T05:16:08.772Z,0
2018-02-24T05:17:09.429Z,0
2018-02-24T05:18:10.085Z,0
2018-02-24T05:19:10.746Z,0
2018-02-24T05:20:11.403Z,0
2018-02-24T05:21:12.058Z,0
2018-02-24T05:22:12.717Z,0
2018-02-24T05:23:13.371Z,0
2018-02-24T05:24:14.026Z,0
2018-02-24T05:25:14.682Z,0
2018-02-24T05:26:15.340Z,0
2018-02-24T05:27:15.994Z,0
2018-02-24T05:28:16.654Z,0
2018-02-24T05:29:17.305Z,0
2018-02-24T05:30:17.960Z,0
2018-02-24T05:31:18.617Z,0
2018-02-24T05:32:19.274Z,0
2018-02-24T05:33:19.929Z,0
2018-02-24T05:34:20.583Z,0
2018-02-24T05:35:21.244Z,0
2018-02-24T05:36:21.896Z,0
2018-02-24T05:37:22.550Z,0
2018-02-24T05:38:23.205Z,0
2018-02-24T05:39:23.864Z,0
2018-02-24T05:40:24.517Z,4
2018-02-24T05:41:25.173Z,0
2018-02-24T05:42:25.830Z,0
2018-02-24T05:43:26.485Z,4
2018-02-24T05:44:27.139Z,4
2018-02-24T05:45:27.794Z,4
2018-02-24T05:46:28.452Z,4
2018-02-24T05:47:29.107Z,4
2018-02-24T05:48:29.761Z,8
2018-02-24T05:49:30.457Z,8
2018-02-24T05:50:31.149Z,12
2018-02-24T05:51:31.805Z,12
2018-02-24T05:52:32.463Z,16
2018-02-24T05:53:33.117Z,16
2018-02-24T05:54:33.774Z,20
2018-02-24T05:55:34.431Z,24
2018-02-24T05:56:35.087Z,24
2018-02-24T05:57:35.754Z,32
2018-02-24T05:58:36.439Z,40
2018-02-24T05:59:37.096Z,44
2018-02-24T06:00:37.752Z,48
2018-02-24T06:01:38.407Z,56
2018-02-24T06:02:39.065Z,64
2018-02-24T06:03:39.721Z,76
2018-02-24T06:04:40.379Z,88
2018-02-24T06:05:41.035Z,96
2018-02-24T06:06:41.696Z,104
2018-02-24T06:07:42.389Z,120
2018-02-24T06:08:43.046Z,132
2018-02-24T06:09:43.702Z,144
2018-02-24T06:10:44.360Z,160
2018-02-24T06:11:45.019Z,176
2018-02-24T06:12:45.676Z,188
2018-02-24T06:13:46.333Z,208
2018-02-24T06:14:46.990Z,228
2018-02-24T06:15:47.708Z,244
2018-02-24T06:16:48.307Z,264
2018-02-24T06:17:49.000Z,288
2018-02-24T06:18:49.656Z,308
2018-02-24T06:19:50.316Z,332
2018-02-24T06:20:50.974Z,356
2018-02-24T06:21:51.633Z,380
2018-02-24T06:22:52.291Z,408
2018-02-24T06:23:52.950Z,432
2018-02-24T06:24:53.608Z,460
2018-02-24T06:25:54.269Z,492
2018-02-24T06:26:54.929Z,520
2018-02-24T06:27:55.587Z,552
2018-02-24T06:28:56.249Z,584
2018-02-24T06:29:56.945Z,616
2018-02-24T06:30:57.601Z,644
2018-02-24T06:31:58.261Z,668
2018-02-24T06:32:58.920Z,704
2018-02-24T06:33:59.579Z,736
2018-02-24T06:35:00.242Z,764
2018-02-24T06:36:00.896Z,796
2018-02-24T06:37:01.554Z,840
2018-02-24T06:38:02.214Z,868
2018-02-24T06:39:02.873Z,908
2018-02-24T06:40:03.532Z,956
2018-02-24T06:41:04.240Z,992
2018-02-24T06:42:04.900Z,1016
2018-02-24T06:43:05.561Z,1040
2018-02-24T06:44:06.220Z,1048
2018-02-24T06:45:06.880Z,1076
2018-02-24T06:46:07.538Z,1096
2018-02-24T06:47:08.198Z,1108
2018-02-24T06:48:08.849Z,1152
2018-02-24T06:49:09.511Z,1188
2018-02-24T06:50:10.172Z,1232
2018-02-24T06:51:10.882Z,1292
2018-02-24T06:52:11.580Z,1356
2018-02-24T06:53:12.240Z,1400
2018-02-24T06:54:12.901Z,1432
2018-02-24T06:55:13.560Z,1464
2018-02-24T06:56:14.219Z,1492
2018-02-24T06:57:14.880Z,1512
2018-02-24T06:58:15.540Z,1508
2018-02-24T06:59:16.202Z,1512
2018-02-24T07:00:16.860Z,1544
2018-02-24T07:01:17.521Z,1592
2018-02-24T07:02:18.183Z,1656
2018-02-24T07:03:18.843Z,1728
2018-02-24T07:04:19.505Z,1736
2018-02-24T07:05:20.165Z,1752
2018-02-24T07:06:20.825Z,1772
2018-02-24T07:07:21.521Z,1784
2018-02-24T07:08:22.145Z,1804
2018-02-24T07:09:22.807Z,1824
2018-02-24T07:10:23.467Z,1852
2018-02-24T07:11:24.126Z,1872
2018-02-24T07:12:24.785Z,1896
2018-02-24T07:13:25.445Z,1888
2018-02-24T07:14:26.107Z,1908
2018-02-24T07:15:26.766Z,1944
2018-02-24T07:16:27.427Z,1948
2018-02-24T07:17:28.087Z,1960
2018-02-24T07:18:28.748Z,1964
2018-02-24T07:19:29.409Z,1988
2018-02-24T07:20:30.070Z,1992
2018-02-24T07:21:30.730Z,2008
2018-02-24T07:22:31.391Z,2012
2018-02-24T07:23:32.051Z,2036
2018-02-24T07:24:32.712Z,2072
2018-02-24T07:25:33.372Z,2092
2018-02-24T07:26:34.034Z,2108
2018-02-24T07:27:34.695Z,2124
2018-02-24T07:28:35.356Z,2136
2018-02-24T07:29:36.021Z,2172
2018-02-24T07:30:36.680Z,2196
2018-02-24T07:31:37.341Z,2212
2018-02-24T07:32:38.002Z,2260
2018-02-24T07:33:38.662Z,2300
2018-02-24T07:34:39.324Z,2352
2018-02-24T07:35:39.984Z,2376
2018-02-24T07:36:40.645Z,2340
2018-02-24T07:37:41.345Z,2560
2018-02-24T07:38:42.004Z,3204
2018-02-24T07:39:42.703Z,2928
2018-02-24T07:40:43.365Z,3984
2018-02-24T07:41:44.027Z,4236
2018-02-24T07:42:44.688Z,4372
2018-02-24T07:43:45.349Z,4524
2018-02-24T07:44:46.011Z,4420
2018-02-24T07:45:46.675Z,4476
2018-02-24T07:46:47.340Z,4404
2018-02-24T07:47:48.000Z,4356
2018-02-24T07:48:48.661Z,4260
2018-02-24T07:49:49.326Z,3868
2018-02-24T07:50:49.991Z,3876
2018-02-24T07:51:50.652Z,3780
2018-02-24T07:52:51.324Z,3780
2018-02-24T07:53:51.978Z,3876
2018-02-24T07:54:52.640Z,3932
2018-02-24T07:55:53.305Z,4036
2018-02-24T07:56:53.964Z,4060
2018-02-24T07:57:54.630Z,4320
2018-02-24T07:58:55.292Z,4356
2018-02-24T07:59:55.957Z,4488
2018-02-24T08:00:56.619Z,4832
2018-02-24T08:01:57.281Z,4824
2018-02-24T08:02:57.946Z,4668
2018-02-24T08:03:58.609Z,4628
2018-02-24T08:04:59.274Z,4256
2018-02-24T08:05:59.936Z,3944
2018-02-24T08:07:00.601Z,3644
2018-02-24T08:08:01.265Z,3092
2018-02-24T08:09:01.963Z,2632
2018-02-24T08:10:02.625Z,2924
2018-02-24T08:11:03.288Z,3292
2018-02-24T08:12:03.952Z,3764
2018-02-24T08:13:04.616Z,3824
2018-02-24T08:14:05.279Z,3836
2018-02-24T08:15:05.943Z,4584
2018-02-24T08:16:06.607Z,4404
2018-02-24T08:17:07.271Z,3584
2018-02-24T08:18:07.935Z,3424
2018-02-24T08:19:08.599Z,4796
2018-02-24T08:20:09.263Z,5668
2018-02-24T08:21:09.927Z,5192
2018-02-24T08:22:10.591Z,3292
2018-02-24T08:23:11.254Z,3076
2018-02-24T08:24:11.954Z,3464
2018-02-24T08:25:12.619Z,3256
2018-02-24T08:26:13.282Z,3096
2018-02-24T08:27:13.948Z,3536
2018-02-24T08:28:14.610Z,3936
2018-02-24T08:29:15.275Z,5636
2018-02-24T08:30:15.938Z,5332
2018-02-24T08:31:16.603Z,6384
2018-02-24T08:32:17.269Z,6592
2018-02-24T08:33:17.933Z,6132
2018-02-24T08:34:18.597Z,6972
2018-02-24T08:35:19.262Z,5924
2018-02-24T08:36:19.928Z,5292
2018-02-24T08:37:20.593Z,4492
2018-02-24T08:38:21.259Z,4648
2018-02-24T08:39:21.949Z,4084
2018-02-24T08:40:22.586Z,3856
2018-02-24T08:41:23.251Z,4040
2018-02-24T08:42:23.916Z,4076
2018-02-24T08:43:24.581Z,3444
2018-02-24T08:44:25.245Z,3160
2018-02-24T08:45:25.912Z,3348
2018-02-24T08:46:26.576Z,3336
2018-02-24T08:47:27.241Z,2948
2018-02-24T08:48:27.905Z,2720
2018-02-24T08:49:28.570Z,2684
2018-02-24T08:50:29.235Z,2784
2018-02-24T08:51:29.897Z,2916
2018-02-24T08:52:30.561Z,2720
2018-02-24T08:53:31.225Z,2724
2018-02-24T08:54:31.887Z,3180
2018-02-24T08:55:32.551Z,3092
2018-02-24T08:56:33.213Z,3080
2018-02-24T08:57:33.879Z,3264
2018-02-24T08:58:34.542Z,3308
2018-02-24T08:59:35.204Z,3048
2018-02-24T09:00:35.866Z,2512
2018-02-24T09:01:36.533Z,2388
2018-02-24T09:02:37.198Z,2732
2018-02-24T09:03:37.864Z,2840
2018-02-24T09:04:38.527Z,2904
2018-02-24T09:05:39.192Z,3116
2018-02-24T09:06:39.858Z,3188
2018-02-24T09:07:40.571Z,2828
2018-02-24T09:08:41.234Z,2592
2018-02-24T09:09:41.900Z,2704
2018-02-24T09:10:42.565Z,2684
2018-02-24T09:11:43.230Z,2948
2018-02-24T09:12:43.895Z,3112
2018-02-24T09:13:44.558Z,2856
2018-02-24T09:14:45.222Z,2748
2018-02-24T09:15:45.889Z,2944
2018-02-24T09:16:46.550Z,2592
2018-02-24T09:17:47.263Z,3068
2018-02-24T09:18:47.927Z,3296
2018-02-24T09:19:48.591Z,3016
2018-02-24T09:20:49.256Z,2892
2018-02-24T09:21:49.920Z,2856
2018-02-24T09:22:50.626Z,2648
2018-02-24T09:23:51.325Z,2672
2018-02-24T09:24:51.987Z,2860
2018-02-24T09:25:52.651Z,3188
2018-02-24T09:26:53.319Z,3280
2018-02-24T09:27:54.020Z,3300
2018-02-24T09:28:54.681Z,2992
2018-02-24T09:29:55.346Z,2820
2018-02-24T09:30:56.046Z,2788
2018-02-24T09:31:56.710Z,3144
2018-02-24T09:32:57.376Z,3740
2018-02-24T09:33:58.040Z,3916
2018-02-24T09:34:58.704Z,3564
2018-02-24T09:35:59.374Z,3356
2018-02-24T09:37:00.035Z,3572
2018-02-24T09:38:00.701Z,4212
2018-02-24T09:39:01.365Z,3940
2018-02-24T09:40:02.034Z,3672
2018-02-24T09:41:02.694Z,3640
2018-02-24T09:42:03.358Z,3160
2018-02-24T09:43:04.025Z,3272
2018-02-24T09:44:04.689Z,3984
2018-02-24T09:45:05.354Z,4072
2018-02-24T09:46:06.017Z,3672
2018-02-24T09:47:06.680Z,4104
2018-02-24T09:48:07.346Z,4388
2018-02-24T09:49:08.012Z,4344
2018-02-24T09:50:08.677Z,3720
2018-02-24T09:51:09.342Z,4936
2018-02-24T09:52:10.005Z,4424
2018-02-24T09:53:10.672Z,4784
2018-02-24T09:54:11.338Z,4680
2018-02-24T09:55:12.003Z,4540
2018-02-24T09:56:12.672Z,5676
2018-02-24T09:57:13.332Z,5508
2018-02-24T09:58:13.999Z,5960
2018-02-24T09:59:14.664Z,5720
2018-02-24T10:00:15.329Z,4704
2018-02-24T10:01:15.993Z,5128
2018-02-24T10:02:16.657Z,5556
2018-02-24T10:03:17.323Z,6448
2018-02-24T10:04:17.988Z,6896
2018-02-24T10:05:18.651Z,6380
2018-02-24T10:06:19.318Z,5632
2018-02-24T10:07:19.985Z,6112
2018-02-24T10:08:20.648Z,6716
2018-02-24T10:09:21.316Z,6880
2018-02-24T10:10:21.980Z,6588
2018-02-24T10:11:22.646Z,6240
2018-02-24T10:12:23.311Z,6628
2018-02-24T10:13:24.014Z,6832
2018-02-24T10:14:24.682Z,6896
2018-02-24T10:15:25.347Z,6920
2018-02-24T10:16:26.012Z,6764
2018-02-24T10:17:26.677Z,6692
2018-02-24T10:18:27.341Z,6968
2018-02-24T10:19:28.009Z,7040
2018-02-24T10:20:28.675Z,6868
2018-02-24T10:21:29.340Z,6308
2018-02-24T10:22:30.046Z,6364
2018-02-24T10:23:30.711Z,6916
2018-02-24T10:24:31.378Z,6940
2018-02-24T10:25:32.045Z,6932
2018-02-24T10:26:32.712Z,6992
2018-02-24T10:27:33.378Z,7276
2018-02-24T10:28:34.044Z,6740
2018-02-24T10:29:34.711Z,6212
2018-02-24T10:30:35.378Z,6392
2018-02-24T10:31:36.042Z,6748
2018-02-24T10:32:36.711Z,6992
2018-02-24T10:33:37.377Z,6320
2018-02-24T10:34:38.042Z,6172
2018-02-24T10:35:38.708Z,6532
2018-02-24T10:36:39.374Z,6820
2018-02-24T10:37:40.042Z,6512
2018-02-24T10:38:40.711Z,6444
2018-02-24T10:39:41.414Z,6440
2018-02-24T10:40:42.082Z,6160
2018-02-24T10:41:42.747Z,5676
2018-02-24T10:42:43.414Z,5572
2018-02-24T10:43:44.085Z,5948
2018-02-24T10:44:44.749Z,4812
2018-02-24T10:45:45.416Z,4740
2018-02-24T10:46:46.085Z,5232
2018-02-24T10:47:46.748Z,4664
2018-02-24T10:48:47.414Z,4548
2018-02-24T10:49:48.079Z,4092
2018-02-24T10:50:48.748Z,5264
2018-02-24T10:51:49.414Z,4612
2018-02-24T10:52:50.081Z,4836
2018-02-24T10:53:50.798Z,4824
2018-02-24T10:54:51.466Z,4760
2018-02-24T10:55:52.130Z,4544
2018-02-24T10:56:52.796Z,4772
2018-02-24T10:57:53.461Z,5064
2018-02-24T10:58:54.178Z,5196
2018-02-24T10:59:54.843Z,3252
2018-02-24T11:00:55.510Z,5664
2018-02-24T11:01:56.177Z,7108
2018-02-24T11:02:56.843Z,6428
2018-02-24T11:03:57.511Z,8128
2018-02-24T11:04:58.216Z,9132
2018-02-24T11:05:58.883Z,9356
2018-02-24T11:06:59.547Z,9196
2018-02-24T11:08:00.211Z,8448
2018-02-24T11:09:00.877Z,6964
2018-02-24T11:10:01.551Z,9424
2018-02-24T11:11:02.212Z,7564
2018-02-24T11:12:02.879Z,8788
2018-02-24T11:13:03.546Z,6288
2018-02-24T11:14:04.212Z,7428
2018-02-24T11:15:04.879Z,6728
2018-02-24T11:16:05.545Z,6564
2018-02-24T11:17:06.212Z,6516
2018-02-24T11:18:06.876Z,6768
2018-02-24T11:19:07.545Z,6484
2018-02-24T11:20:08.214Z,5356
2018-02-24T11:21:08.880Z,5492
2018-02-24T11:22:09.551Z,5124
2018-02-24T11:23:10.214Z,4020
2018-02-24T11:24:10.883Z,4012
2018-02-24T11:25:11.547Z,3720
2018-02-24T11:26:12.216Z,3560
2018-02-24T11:27:12.880Z,3152
2018-02-24T11:28:13.546Z,3964
2018-02-24T11:29:14.215Z,4292
2018-02-24T11:30:14.920Z,3812
2018-02-24T11:31:15.589Z,4432
2018-02-24T11:32:16.253Z,4036
2018-02-24T11:33:16.920Z,4256
2018-02-24T11:34:17.586Z,3688
2018-02-24T11:35:18.254Z,3896
2018-02-24T11:36:18.918Z,4508
2018-02-24T11:37:19.586Z,4776
2018-02-24T11:38:20.291Z,4740
2018-02-24T11:39:20.956Z,4864
2018-02-24T11:40:21.624Z,4576
2018-02-24T11:41:22.289Z,5200
2018-02-24T11:42:22.958Z,5644
2018-02-24T11:43:23.625Z,5480
2018-02-24T11:44:24.291Z,5680
2018-02-24T11:45:24.964Z,6828
2018-02-24T11:46:25.667Z,8076
2018-02-24T11:47:26.333Z,7680
2018-02-24T11:48:26.999Z,7808
2018-02-24T11:49:27.664Z,8952
2018-02-24T11:50:28.339Z,7176
2018-02-24T11:51:29.000Z,6476
2018-02-24T11:52:29.706Z,6296
2018-02-24T11:53:30.372Z,6936
2018-02-24T11:54:31.089Z,6924
2018-02-24T11:55:31.755Z,6452
2018-02-24T11:56:32.427Z,5504
2018-02-24T11:57:33.090Z,7652
2018-02-24T11:58:33.756Z,8208
2018-02-24T11:59:34.423Z,6520
2018-02-24T12:00:35.091Z,5440
2018-02-24T12:01:35.756Z,7496
2018-02-24T12:02:36.427Z,7552
2018-02-24T12:03:37.090Z,4476
2018-02-24T12:04:37.810Z,4296
2018-02-24T12:05:38.475Z,7236
2018-02-24T12:06:39.142Z,7816
2018-02-24T12:07:39.813Z,5744
2018-02-24T12:08:40.480Z,4812
2018-02-24T12:09:41.146Z,4504
2018-02-24T12:10:41.815Z,5708
2018-02-24T12:11:42.481Z,5808
2018-02-24T12:12:43.149Z,5408
2018-02-24T12:13:43.868Z,7572
2018-02-24T12:14:44.483Z,6316
2018-02-24T12:15:45.192Z,5884
2018-02-24T12:16:45.860Z,7712
2018-02-24T12:17:46.526Z,6028
2018-02-24T12:18:47.194Z,5456
2018-02-24T12:19:47.859Z,7276
2018-02-24T12:20:48.528Z,6272
2018-02-24T12:21:49.194Z,7584
2018-02-24T12:22:49.864Z,7940
2018-02-24T12:23:50.569Z,7144
2018-02-24T12:24:51.236Z,8632
2018-02-24T12:25:51.903Z,6400
2018-02-24T12:26:52.569Z,6048
2018-02-24T12:27:53.235Z,5780
2018-02-24T12:28:53.903Z,5404
2018-02-24T12:29:54.570Z,7672
2018-02-24T12:30:55.237Z,6896
2018-02-24T12:31:55.904Z,6184
2018-02-24T12:32:56.570Z,5668
2018-02-24T12:33:57.239Z,5436
2018-02-24T12:34:57.908Z,5416
2018-02-24T12:35:58.572Z,4924
2018-02-24T12:36:59.245Z,4108
2018-02-24T12:37:59.907Z,3444
2018-02-24T12:39:00.575Z,3364
2018-02-24T12:40:01.240Z,3644
2018-02-24T12:41:01.911Z,3496
2018-02-24T12:42:02.576Z,3012
2018-02-24T12:43:03.242Z,2672
2018-02-24T12:44:03.948Z,2664
2018-02-24T12:45:04.615Z,3368
2018-02-24T12:46:05.281Z,4300
2018-02-24T12:47:05.949Z,4804
2018-02-24T12:48:06.613Z,7884
2018-02-24T12:49:07.280Z,6048
2018-02-24T12:50:07.947Z,4772
2018-02-24T12:51:08.613Z,4672
2018-02-24T12:52:09.279Z,6228
2018-02-24T12:53:09.946Z,4712
2018-02-24T12:54:10.610Z,4188
2018-02-24T12:55:11.277Z,4704
2018-02-24T12:56:11.943Z,7764
2018-02-24T12:57:12.610Z,3976
2018-02-24T12:58:13.277Z,7232
2018-02-24T12:59:13.943Z,6664
2018-02-24T13:00:14.612Z,4400
2018-02-24T13:01:15.277Z,5832
2018-02-24T13:02:15.943Z,6032
2018-02-24T13:03:16.609Z,7052
2018-02-24T13:04:17.275Z,7760
2018-02-24T13:05:17.996Z,7172
2018-02-24T13:06:18.610Z,6476
2018-02-24T13:07:19.278Z,6052
2018-02-24T13:08:19.946Z,5940
2018-02-24T13:09:20.613Z,6228
2018-02-24T13:10:21.280Z,6848
2018-02-24T13:11:21.983Z,7300
2018-02-24T13:12:22.614Z,6188
2018-02-24T13:13:23.280Z,4604
2018-02-24T13:14:23.949Z,7492
2018-02-24T13:15:24.654Z,7460
2018-02-24T13:16:25.320Z,6228
2018-02-24T13:17:25.989Z,6128
2018-02-24T13:18:26.652Z,6084
2018-02-24T13:19:27.319Z,5708
2018-02-24T13:20:27.988Z,5204
2018-02-24T13:21:28.654Z,5228
2018-02-24T13:22:29.320Z,5284
2018-02-24T13:23:29.987Z,5424
2018-02-24T13:24:30.654Z,5456
2018-02-24T13:25:31.340Z,5608
2018-02-24T13:26:31.988Z,5520
2018-02-24T13:27:32.653Z,5404
2018-02-24T13:28:33.319Z,5248
2018-02-24T13:29:33.988Z,5216
2018-02-24T13:30:34.654Z,5208
2018-02-24T13:31:35.322Z,5208
2018-02-24T13:32:35.995Z,5220
2018-02-24T13:33:36.692Z,5260
2018-02-24T13:34:37.358Z,5236
2018-02-24T13:35:38.026Z,5192
2018-02-24T13:36:38.690Z,5208
2018-02-24T13:37:39.359Z,5248
2018-02-24T13:38:40.026Z,5976
2018-02-24T13:39:40.693Z,6660
2018-02-24T13:40:41.360Z,6096
2018-02-24T13:41:42.028Z,5380
2018-02-24T13:42:42.692Z,5360
2018-02-24T13:43:43.362Z,5336
2018-02-24T13:44:44.033Z,5328
2018-02-24T13:45:44.693Z,5316
2018-02-24T13:46:45.360Z,5364
2018-02-24T13:47:46.029Z,5356
2018-02-24T13:48:46.693Z,5444
2018-02-24T13:49:47.360Z,5604
2018-02-24T13:50:48.025Z,6092
2018-02-24T13:51:48.694Z,7276
2018-02-24T13:52:49.357Z,6928
2018-02-24T13:53:50.023Z,6324
2018-02-24T13:54:50.692Z,6176
2018-02-24T13:55:51.462Z,5912
2018-02-24T13:56:52.074Z,5884
2018-02-24T13:57:52.743Z,3848
2018-02-24T13:58:53.409Z,5584
2018-02-24T13:59:54.078Z,6140
2018-02-24T14:00:54.742Z,6264
2018-02-24T14:01:55.407Z,6424
2018-02-24T14:02:56.103Z,6944
2018-02-24T14:03:56.743Z,7640
2018-02-24T14:04:57.407Z,7624